Aviation Digital Data Service (ADDS)

Output produced by METARs form (0805 UTC 20 March 2019)
found at http://www.aviationweather.gov/metar/data/
 
Forecast for: YBAS (ALICE SPRINGS AR, AU)
Text: TAF YBAS 200503Z 2006/2106 11014KT CAVOK
Forecast period: 0600 to 1000 UTC 20 March 2019
Forecast type: FROM: standard forecast or significant change
Winds: from the ESE (110 degrees) at 16 MPH (14 knots; 7.2 m/s)
Visibility: 6 or more miles 10+ km)
Ceiling: unknown
Clouds: missing
Weather: NSW  (no significant weather)
Text: FM201000 12006KT CAVOK
Forecast period: 1000 to 1800 UTC 20 March 2019
Forecast type: FROM: standard forecast or significant change
Winds: from the ESE (120 degrees) at 7 MPH (6 knots; 3.1 m/s)
Visibility: 6 or more miles 10+ km)
Ceiling: unknown
Clouds: missing
Weather: NSW  (no significant weather)
Text: FM201800 30005KT CAVOK
Forecast period: 1800 UTC 20 March 2019 to 0000 UTC 21 March 2019
Forecast type: FROM: standard forecast or significant change
Winds: from the WNW (300 degrees) at 6 MPH (5 knots; 2.6 m/s)
Visibility: 6 or more miles 10+ km)
Ceiling: unknown
Clouds: missing
Weather: NSW  (no significant weather)
Text: FM210000 12014KT CAVOK
Forecast period: 0000 to 0600 UTC 21 March 2019
Forecast type: FROM: standard forecast or significant change
Winds: from the ESE (120 degrees) at 16 MPH (14 knots; 7.2 m/s)
Visibility: 6 or more miles 10+ km)
Ceiling: unknown
Clouds: missing
Weather: NSW  (no significant weather)